Latest Weather Observations for Bankstown

IDN60901

Issued at 7:01 pm EST Tuesday 20 August 2019 (issued every 10 minutes, with the page automatically refreshed every 10 minutes)

About weather observations | Map of Sydney area stations | Latest observations for Sydney area | Other Formats
Station Details ID: 066137 Name: BANKSTOWN AIRPORT AWS Lat: -33.92 Lon: 150.99 Height: 6.5 m
Data from the previous 72 hours. | See also: Recent months at Bankstown
Date/Time
EST
Temp
°C
App
Temp
°C
Dew
Point
°C
Rel
Hum
%
Delta-T
°C
Wind Press
QNH
hPa
Press
MSL
hPa
Rain since
9am
mm
Dir  Spd
km/h
Gust
km/h
Spd
kts
Gust
kts
20/07:00pm 13.8 8.1 0.8 41 5.5 W 20 32 11 17 1020.3 1020.3 0.0
20/06:30pm 14.5 9.3 0.0 37 6.1 WSW 17 24 9 13 1020.4 1020.4 0.0
20/06:00pm 15.6 9.0 -0.6 33 6.8 WSW 24 39 13 21 1019.8 1019.8 0.0
20/05:30pm 16.7 10.3 -1.4 29 7.5 W 22 35 12 19 1019.3 1019.3 0.0
20/05:00pm 17.9 12.2 -0.8 28 7.9 W 19 32 10 17 1019.1 1019.1 0.0
20/04:30pm 18.6 10.4 -1.3 26 8.5 W 32 44 17 24 1018.8 1018.8 0.0
20/04:00pm 19.2 12.2 -0.7 26 8.6 W 26 43 14 23 1018.8 1018.8 0.0
20/03:30pm 19.4 11.9 -1.1 25 8.8 WSW 28 39 15 21 1019.1 1019.1 0.0
20/03:00pm 19.9 12.0 -1.2 24 9.1 WSW 30 41 16 22 1019.3 1019.3 0.0
20/02:41pm 19.9 12.3 -1.8 23 9.2 WSW 28 46 15 25 1019.4 1019.4 0.0
20/02:30pm 20.4 13.3 -1.4 23 9.4 WSW 26 39 14 21 1019.4 1019.4 0.0
20/02:00pm 20.7 13.1 -1.8 22 9.6 WSW 28 39 15 21 1019.2 1019.2 0.0
20/01:30pm 20.1 12.5 -2.3 22 9.5 WSW 28 41 15 22 1019.5 1019.5 0.0
20/01:00pm 20.1 13.0 -1.1 24 9.1 WSW 26 37 14 20 1019.9 1019.9 0.0
20/12:30pm 19.3 13.9 -1.2 25 8.8 W 17 26 9 14 1020.4 1020.4 0.0
20/12:00pm 18.4 12.1 -0.9 27 8.2 WSW 22 35 12 19 1021.1 1021.1 0.0
20/11:30am 17.7 12.0 0.4 31 7.5 WSW 20 33 11 18 1021.6 1021.6 0.0
20/11:00am 17.1 11.0 0.3 32 7.2 W 22 35 12 19 1022.3 1022.3 0.0
20/10:30am 16.1 9.9 -0.2 33 6.9 W 22 32 12 17 1022.5 1022.5 0.0
20/10:00am 15.2 10.1 0.6 37 6.2 WSW 17 32 9 17 1023.0 1023.0 0.0
20/09:30am 14.2 8.7 0.8 40 5.7 W 19 30 10 16 1023.3 1023.3 0.0
20/09:00am 12.6 8.0 1.6 47 4.7 NW 15 19 8 10 1023.6 1023.6 0.0
20/08:30am 11.2 6.9 0.9 49 4.3 WNW 13 20 7 11 1023.8 1023.8 0.0
20/08:00am 9.9 5.6 0.8 53 3.7 NW 13 19 7 10 1023.7 1023.7 0.0
20/07:30am 9.5 4.4 0.7 54 3.6 WNW 17 24 9 13 1023.7 1023.7 0.0
20/07:00am 7.7 3.3 0.4 60 2.9 WNW 13 17 7 9 1023.5 1023.5 0.0
20/06:30am 6.8 2.7 -0.4 60 2.8 NNW 11 15 6 8 1023.6 1023.6 0.0
20/06:00am 5.7 1.1 -0.8 63 2.4 NNW 13 15 7 8 1023.4 1023.4 0.0
20/05:30am 6.6 2.4 -0.8 59 2.8 N 11 13 6 7 1023.2 1023.2 0.0
20/05:00am 6.8 1.8 -0.9 58 2.9 N 15 17 8 9 1023.0 1023.0 0.0
20/04:30am 6.5 2.3 -0.7 60 2.7 N 11 11 6 6 1023.1 1023.1 0.0
20/04:00am 7.3 3.1 -0.6 57 3.0 NNW 11 15 6 8 1023.1 1023.1 0.0
20/03:30am 7.9 3.0 -0.3 56 3.2 WNW 15 19 8 10 1023.1 1023.1 0.0
20/03:00am 6.9 2.3 -1.0 57 3.0 NW 13 15 7 8 1023.2 1023.2 0.0
20/02:30am 8.5 4.0 -0.5 53 3.5 WNW 13 17 7 9 1023.7 1023.7 0.0
20/02:00am 8.3 3.7 -0.7 53 3.5 NW 13 17 7 9 1023.9 1023.9 0.0
20/01:30am 8.7 3.4 -0.9 51 3.7 W 17 22 9 12 1024.0 1024.0 0.0
20/01:00am 9.3 3.9 -1.1 48 4.0 W 17 24 9 13 1024.2 1024.2 0.0
20/12:30am 9.2 4.5 -1.5 47 4.1 W 13 19 7 10 1024.2 1024.2 0.0
20/12:00am 9.4 4.0 -1.6 46 4.2 W 17 24 9 13 1024.0 1024.0 0.0
 
Date/Time
EST
Temp
°C
App
Temp
°C
Dew
Point
°C
Rel
Hum
%
Delta-T
°C
Wind Press
QNH
hPa
Press
MSL
hPa
Rain since
9am
mm
Dir  Spd
km/h
Gust
km/h
Spd
kts
Gust
kts
19/11:30pm 9.7 3.8 -1.9 44 4.4 W 19 28 10 15 1024.2 1024.2 0.0
19/11:00pm 9.6 4.9 -2.0 44 4.4 W 13 20 7 11 1024.1 1024.1 0.0
19/10:30pm 10.0 3.6 -2.0 43 4.6 W 22 30 12 16 1023.6 1023.6 0.0
19/10:00pm 10.2 3.8 -1.8 43 4.6 WSW 22 33 12 18 1023.6 1023.6 0.0
19/09:30pm 10.5 4.1 -1.9 42 4.8 W 22 32 12 17 1023.1 1023.1 0.0
19/09:00pm 10.7 4.2 -2.3 40 5.0 W 22 32 12 17 1023.1 1023.1 0.0
19/08:30pm 10.9 4.7 -2.8 38 5.2 W 20 30 11 16 1022.6 1022.6 0.0
19/08:00pm 11.1 4.2 -3.0 37 5.3 W 24 32 13 17 1022.2 1022.2 0.0
19/07:30pm 11.2 3.9 -2.6 38 5.3 W 26 39 14 21 1021.7 1021.7 0.0
19/07:00pm 11.4 4.5 -2.4 38 5.3 W 24 39 13 21 1021.6 1021.6 0.0
19/06:30pm 11.7 4.8 -2.9 36 5.6 W 24 39 13 21 1021.0 1021.0 0.0
19/06:00pm 12.1 5.1 -3.3 34 5.8 WSW 24 43 13 23 1020.5 1020.5 0.0
19/05:30pm 12.6 4.8 -3.6 32 6.2 WSW 28 44 15 24 1019.8 1019.8 0.0
19/05:14pm 12.9 4.7 -3.8 31 6.3 WSW 30 48 16 26 1019.5 1019.5 0.0
19/05:00pm 13.3 4.8 -3.4 31 6.4 W 32 48 17 26 1019.2 1019.2 0.0
19/04:30pm 14.0 5.2 -4.7 27 7.0 W 33 52 18 28 1018.3 1018.3 0.0
19/04:05pm 14.4 4.4 -5.3 25 7.4 W 39 57 21 31 1017.8 1017.8 0.0
19/04:00pm 14.5 5.2 -5.3 25 7.4 W 35 52 19 28 1017.5 1017.5 0.0
19/03:30pm 14.9 5.7 -4.4 26 7.4 W 35 50 19 27 1017.4 1017.4 0.0
19/03:08pm 15.3 7.4 -4.6 25 7.6 W 28 46 15 25 1017.7 1017.7 0.0
19/03:00pm 15.2 6.6 -4.2 26 7.5 W 32 46 17 25 1017.5 1017.5 0.0
19/02:30pm 14.9 5.9 -3.0 29 7.1 W 35 46 19 25 1017.0 1017.0 0.0
19/02:14pm 15.1 6.5 -2.3 30 7.0 W 33 46 18 25 1017.0 1017.0 0.0
19/02:05pm 16.2 7.7 -1.8 29 7.4 WSW 33 52 18 28 1016.9 1016.9 0.0
19/02:00pm 15.5 6.9 -2.9 28 7.3 W 33 54 18 29 1016.8 1016.8 0.0
19/01:46pm 15.6 6.2 -2.8 28 7.4 W 37 57 20 31 1016.7 1016.7 0.0
19/01:44pm 15.5 6.1 -2.9 28 7.3 W 37 54 20 29 1016.5 1016.5 0.0
19/01:30pm 16.0 7.3 -3.0 27 7.6 WSW 33 52 18 28 1016.6 1016.6 0.0
19/01:00pm 15.3 6.5 -4.6 25 7.6 W 33 54 18 29 1016.6 1016.6 0.0
19/12:41pm 16.1 8.0 -3.4 26 7.7 W 30 54 16 29 1016.3 1016.3 0.0
19/12:30pm 15.8 7.3 -3.1 27 7.5 WSW 32 43 17 23 1016.3 1016.3 0.0
19/12:00pm 15.6 7.5 -3.3 27 7.5 W 30 50 16 27 1016.2 1016.2 0.0
19/11:42am 15.4 6.0 -2.5 29 7.2 W 37 50 20 27 1016.4 1016.4 0.0
19/11:30am 15.2 6.7 -3.2 28 7.3 WSW 32 46 17 25 1016.4 1016.4 0.0
19/11:00am 15.3 6.2 -3.6 27 7.4 W 35 48 19 26 1016.4 1016.4 0.0
19/10:30am 14.9 7.3 -2.1 31 6.8 W 28 44 15 24 1016.3 1016.3 0.0
19/10:00am 14.5 7.0 -1.6 33 6.5 W 28 39 15 21 1016.1 1016.1 0.0
19/09:30am 13.8 6.7 -1.4 35 6.1 WNW 26 35 14 19 1015.8 1015.8 0.0
19/09:00am 13.4 7.1 -1.3 36 5.9 WNW 22 32 12 17 1015.8 1015.8 0.0
19/08:30am 12.8 6.4 -1.5 37 5.7 W 22 35 12 19 1015.3 1015.3 0.0
19/08:00am 12.5 6.2 -1.1 39 5.5 W 22 32 12 17 1015.3 1015.3 0.0
19/07:30am 11.8 5.1 -1.0 41 5.1 W 24 32 13 17 1014.9 1014.9 0.0
19/07:00am 10.9 4.7 -0.5 45 4.6 WNW 22 35 12 19 1014.3 1014.3 0.0
19/06:30am 10.3 4.6 -0.5 47 4.3 WNW 19 24 10 13 1013.9 1013.9 0.0
19/06:00am 10.7 4.9 -0.4 46 4.4 WNW 20 26 11 14 1013.6 1013.6 0.0
19/05:30am 10.8 6.4 0.2 48 4.3 W 13 17 7 9 1013.2 1013.2 0.0
19/05:00am 11.5 5.7 0.0 45 4.7 W 20 28 11 15 1012.6 1012.6 0.0
19/04:30am 12.2 4.9 0.3 44 4.9 W 28 41 15 22 1012.1 1012.1 0.0
19/04:00am 12.5 6.4 0.6 44 5.0 WNW 22 32 12 17 1011.9 1011.9 0.0
19/03:30am 12.6 7.2 1.3 46 4.8 W 19 28 10 15 1011.8 1011.8 0.0
19/03:00am 12.7 9.4 2.3 49 4.5 SSW 9 17 5 9 1012.0 1012.0 0.0
19/02:30am 12.8 9.8 1.8 47 4.7 SW 7 13 4 7 1011.9 1011.9 0.0
19/02:00am 13.4 8.5 2.0 46 5.0 WSW 17 30 9 16 1012.0 1012.0 0.0
19/01:30am 13.5 6.7 3.3 50 4.6 SW 28 44 15 24 1011.9 1011.9 0.0
19/01:00am 15.3 7.8 4.7 49 5.0 WSW 33 56 18 30 1011.5 1011.5 0.0
19/12:56am 15.4 8.9 4.8 49 5.0 WSW 28 56 15 30 1011.5 1011.5 0.0
19/12:30am 15.4 10.3 5.9 53 4.6 WSW 22 35 12 19 1010.5 1010.5 0.0
19/12:00am 14.6 11.0 10.0 74 2.4 WSW 19 33 10 18 1010.3 1010.3 0.0
 
Date/Time
EST
Temp
°C
App
Temp
°C
Dew
Point
°C
Rel
Hum
%
Delta-T
°C
Wind Press
QNH
hPa
Press
MSL
hPa
Rain since
9am
mm
Dir  Spd
km/h
Gust
km/h
Spd
kts
Gust
kts
18/11:30pm 13.8 12.4 9.0 73 2.4 NNE 6 9 3 5 1008.8 1008.8 0.0
18/11:00pm 15.6 15.2 9.9 69 3.0 WNW 2 9 1 5 1008.7 1008.7 0.0
18/10:30pm 16.3 11.9 10.4 68 3.1 WSW 24 41 13 22 1009.2 1009.2 0.0
18/10:21pm 15.7 11.4 10.7 72 2.7 W 24 35 13 19 1009.5 1009.5 0.0
18/10:00pm 17.2 15.6 10.1 63 3.8 N 9 13 5 7 1007.4 1007.4 0.0
18/09:30pm 17.7 15.1 10.6 63 3.8 NNE 15 24 8 13 1007.5 1007.5 0.0
18/09:00pm 17.5 15.8 11.1 66 3.5 NNE 11 19 6 10 1008.2 1008.2 0.0
18/08:30pm 15.9 15.6 11.3 74 2.5 NNE 4 7 2 4 1009.0 1009.0 0.0
18/08:00pm 17.1 15.2 11.8 71 2.9 N 13 19 7 10 1009.7 1009.7 0.0
18/07:30pm 17.4 15.3 12.5 73 2.7 NE 15 26 8 14 1009.9 1009.9 0.0
18/07:00pm 17.6 15.7 12.9 74 2.6 NE 15 24 8 13 1010.3 1010.3 0.0
18/06:30pm 17.7 15.8 13.0 74 2.6 NE 15 28 8 15 1010.6 1010.6 0.0
18/06:00pm 18.0 15.6 12.7 71 3.0 NE 17 26 9 14 1010.8 1010.8 0.0
18/05:30pm 18.5 16.8 12.3 67 3.4 ENE 13 19 7 10 1011.3 1011.3 0.0
18/05:00pm 19.2 16.7 12.2 64 3.9 ENE 17 32 9 17 1011.3 1011.3 0.0
18/04:30pm 19.9 16.7 11.9 60 4.4 NE 20 30 11 16 1011.4 1011.4 0.0
18/04:00pm 20.6 17.6 11.8 57 4.9 ENE 19 30 10 16 1011.5 1011.5 0.0
18/03:30pm 20.8 17.5 10.9 53 5.4 NE 19 30 10 16 1011.9 1011.9 0.0
18/03:00pm 21.4 18.2 11.1 52 5.7 ENE 19 26 10 14 1012.2 1012.2 0.0
18/02:30pm 21.2 17.4 11.0 52 5.6 ENE 22 30 12 16 1012.8 1012.8 0.0
18/02:00pm 21.7 18.1 9.9 47 6.4 ENE 19 26 10 14 1013.4 1013.4 0.0
18/01:30pm 22.0 18.7 9.5 45 6.7 ENE 17 30 9 16 1014.1 1014.1 0.0
18/01:00pm 21.5 19.0 9.7 47 6.3 ENE 13 22 7 12 1014.8 1014.8 0.0
18/12:30pm 20.2 16.6 8.5 47 6.1 NNE 17 24 9 13 1015.8 1015.8 0.0
18/12:00pm 19.9 15.6 9.5 51 5.5 NNE 22 35 12 19 1016.5 1016.5 0.0
18/11:30am 18.9 15.3 9.7 55 4.9 N 19 30 10 16 1017.4 1017.4 0.0
18/11:00am 17.6 16.2 9.5 59 4.2 W 7 13 4 7 1018.3 1018.3 0.0
18/10:30am 16.5 14.8 8.5 59 4.1 W 7 11 4 6 1019.1 1019.1 0.0
18/10:00am 15.1 14.7 8.1 63 3.5 CALM 0 6 0 3 1019.4 1019.4 0.0
18/09:30am 12.9 12.3 7.4 69 2.7 CALM 0 6 0 3 1019.7 1019.7 0.0
18/09:00am 11.5 9.7 7.0 74 2.1 NW 6 7 3 4 1020.3 1020.3 0.0
18/08:30am 10.2 8.2 6.9 80 1.6 NW 7 11 4 6 1020.6 1020.6 0.0
18/08:00am 8.8 7.6 6.4 85 1.1 N 2 7 1 4 1020.7 1020.7 0.0
18/07:30am 7.3 6.0 6.2 93 0.5 N 2 7 1 4 1020.5 1020.5 0.0
18/07:00am 5.0 3.7 4.0 93 0.4 CALM 0 0 0 0 1020.6 1020.6 0.0
18/06:30am 5.0 3.7 4.1 94 0.4 CALM 0 0 0 0 1020.8 1020.8 0.0
18/06:00am 5.4 4.2 4.5 94 0.4 CALM 0 0 0 0 1020.5 1020.5 0.0
18/05:30am 4.9 3.6 3.9 93 0.4 CALM 0 0 0 0 1020.4 1020.4 0.0
18/05:00am 5.1 3.8 4.1 93 0.4 CALM 0 0 0 0 1020.5 1020.5 0.0
18/04:30am 5.0 3.6 3.8 92 0.5 CALM 0 0 0 0 1020.6 1020.6 0.0
18/04:00am 6.3 5.3 5.4 94 0.4 CALM 0 0 0 0 1020.4 1020.4 0.0
18/03:30am 5.6 4.4 4.4 92 0.5 CALM 0 0 0 0 1020.6 1020.6 0.0
18/03:00am 5.6 4.3 4.2 91 0.6 CALM 0 0 0 0 1020.6 1020.6 0.0
18/02:30am 6.2 3.9 4.8 91 0.6 N 6 6 3 3 1021.3 1021.3 0.0
18/02:00am 6.9 4.7 5.4 90 0.7 NNW 6 7 3 4 1021.4 1021.4 0.0
18/01:30am 8.0 6.1 6.5 90 0.7 NNW 6 7 3 4 1021.5 1021.5 0.0
18/01:00am 7.4 6.5 6.0 91 0.6 CALM 0 0 0 0 1021.7 1021.7 0.0
18/12:41am 7.2 6.2 5.7 90 0.7 CALM 0 0 0 0 1021.8 1021.8 0.0
18/12:30am 7.5 6.6 6.1 91 0.6 CALM 0 0 0 0 1021.9 1021.9 0.0
18/12:22am 7.3 6.3 5.6 89 0.8 CALM 0 0 0 0 1021.9 1021.9 0.0
18/12:00am 7.9 7.1 6.4 90 0.7 CALM 0 0 0 0 1021.8 1021.8 0.0
 
Date/Time
EST
Temp
°C
App
Temp
°C
Dew
Point
°C
Rel
Hum
%
Delta-T
°C
Wind Press
QNH
hPa
Press
MSL
hPa
Rain since
9am
mm
Dir  Spd
km/h
Gust
km/h
Spd
kts
Gust
kts
17/11:30pm 7.8 6.9 5.9 88 0.9 CALM 0 0 0 0 1021.8 1021.8 0.0
17/11:00pm 7.7 6.7 5.8 88 0.9 CALM 0 0 0 0 1021.9 1021.9 0.0
17/10:30pm 8.4 7.5 6.2 86 1.0 CALM 0 0 0 0 1022.3 1022.3 0.0
17/10:00pm 9.6 7.7 7.5 87 1.0 N 7 9 4 5 1022.0 1022.0 0.0
17/09:30pm 9.8 9.3 7.7 87 1.0 CALM 0 0 0 0 1021.8 1021.8 0.0
17/09:00pm 9.7 9.1 7.3 85 1.1 CALM 0 0 0 0 1021.4 1021.4 0.0
17/08:30pm 9.5 8.8 6.9 84 1.2 CALM 0 0 0 0 1021.3 1021.3 0.0
17/08:00pm 10.7 10.1 7.4 80 1.6 CALM 0 0 0 0 1021.4 1021.4 0.0
17/07:30pm 10.7 10.1 7.2 79 1.7 CALM 0 0 0 0 1021.3 1021.3 0.0

Latest Capital City Observations: Canberra | Sydney | Melbourne | Brisbane | Adelaide | Perth | Hobart | Darwin

Other formats

Comma delimited format used in spreadsheet applications
http://www.bom.gov.au/fwo/IDN60901/IDN60901.94765.axf

JavaScript Object Notation format (JSON) in row-major order
http://www.bom.gov.au/fwo/IDN60901/IDN60901.94765.json

Data quality

Most of these data are generated automatically and are frequently updated. Quality checks on data are not normally performed. It is possible for incorrect values to appear. Refer to information at About Latest Weather Observations and please check the disclaimer before using these data.